Latest Weather Observations for Larapuna (Eddystone Point)

IDT60801

Issued at 10:32 am EST Sunday 24 July 2016 (issued every 30 minutes, with the page automatically refreshed every 10 minutes)

About weather observations | Map of weather stations | Latest weather observations for TAS | Other Formats
Station Details ID: 092045 Name: LARAPUNA (EDDYSTONE POINT) Lat: -40.99 Lon: 148.35 Height: 19.7 m
Data from the previous 72 hours. | See also: Recent months at Larapuna (Eddystone Point)
Date/Time
EST
Temp
°C
App
Temp
°C
Dew
Point
°C
Rel
Hum
%
Delta-T
°C
Wind Press
QNH
hPa
Press
MSL
hPa
Rain since
9am
mm
Dir  Spd
km/h
Gust
km/h
Spd
kts
Gust
kts
24/10:30am 9.1 4.7 2.7 64 2.7 WNW 15 20 8 11 1007.2 1007.2 0.0
24/10:00am 8.1 5.2 2.4 67 2.4 W 7 13 4 7 1007.3 1007.3 0.0
24/09:30am 6.8 3.3 1.5 69 2.1 W 9 13 5 7 1007.3 1007.3 0.0
24/09:00am 6.0 2.1 1.2 71 1.9 WSW 11 15 6 8 1007.3 1007.3 0.0
24/08:30am 4.9 0.1 0.3 72 1.8 WNW 15 19 8 10 1007.3 1007.3 0.0
24/08:00am 4.6 -0.6 0.0 72 1.7 W 17 20 9 11 1007.2 1007.2 0.0
24/07:30am 3.9 -2.7 -0.3 74 1.6 WNW 24 32 13 17 1006.9 1006.9 0.0
24/07:00am 3.4 -4.3 -0.4 76 1.4 WNW 30 39 16 21 1006.4 1006.4 0.0
24/06:30am 2.9 -4.9 -1.1 75 1.4 WNW 30 33 16 18 1006.6 1006.6 0.0
24/06:00am 4.0 -3.8 -1.0 70 1.8 WNW 30 35 16 19 1006.5 1006.5 0.0
24/05:30am 4.3 -3.9 -1.1 68 2.0 WNW 32 35 17 19 1006.5 1006.5 0.0
24/05:00am 3.7 -3.4 -1.1 71 1.8 WNW 26 32 14 17 1006.5 1006.5 0.0
24/04:30am 3.2 -2.8 -1.5 71 1.7 WNW 20 24 11 13 1006.5 1006.5 0.0
24/04:00am 3.6 -3.2 -1.7 68 1.9 WNW 24 32 13 17 1006.7 1006.7 0.0
24/03:30am 3.3 -2.8 -2.0 68 1.9 W 20 24 11 13 1006.5 1006.5 0.0
24/03:00am 3.6 -2.9 -2.3 65 2.1 W 22 28 12 15 1006.6 1006.6 0.0
24/02:30am 3.3 -3.2 -2.2 67 1.9 W 22 28 12 15 1006.9 1006.9 0.0
24/02:00am 2.5 -3.4 -2.4 70 1.7 W 19 26 10 14 1006.8 1006.8 0.0
24/01:30am 3.6 -4.0 -2.1 66 2.0 W 28 37 15 20 1006.6 1006.6 0.0
24/01:00am 3.8 -4.2 -2.4 64 2.2 W 30 41 16 22 1006.4 1006.4 0.0
24/12:30am 3.0 -3.1 -2.7 66 2.0 W 20 35 11 19 1006.3 1006.3 0.0
24/12:00am 3.3 -4.7 -2.4 66 2.0 W 30 39 16 21 1005.9 1005.9 0.0
 
Date/Time
EST
Temp
°C
App
Temp
°C
Dew
Point
°C
Rel
Hum
%
Delta-T
°C
Wind Press
QNH
hPa
Press
MSL
hPa
Rain since
9am
mm
Dir  Spd
km/h
Gust
km/h
Spd
kts
Gust
kts
23/11:30pm 3.6 -4.4 -2.3 65 2.1 W 30 41 16 22 1005.8 1005.8 0.0
23/11:00pm 3.7 -4.2 -1.8 67 2.0 W 30 37 16 20 1005.7 1005.7 0.0
23/10:30pm 4.0 -4.3 -2.0 65 2.1 W 32 43 17 23 1005.0 1005.0 0.0
23/10:00pm 3.9 -4.4 -1.5 68 2.0 W 32 43 17 23 1004.5 1004.5 0.0
23/09:30pm 3.8 -4.5 -0.6 73 1.6 W 33 46 18 25 1003.7 1003.7 0.0
23/09:00pm 3.9 -4.2 -0.3 74 1.6 W 32 43 17 23 1003.1 1003.1 0.0
23/08:30pm 4.2 -3.5 -0.4 72 1.7 W 30 41 16 22 1002.5 1002.5 0.0
23/08:00pm 4.3 -3.0 -0.3 72 1.7 W 28 41 15 22 1002.0 1002.0 0.0
23/07:30pm 4.4 -2.5 0.2 74 1.6 W 26 35 14 19 1001.3 1001.3 0.0
23/07:00pm 4.7 -1.8 0.5 74 1.6 W 24 32 13 17 1000.3 1000.3 0.0
23/06:30pm 4.7 -2.6 0.1 72 1.7 W 28 33 15 18 999.0 999.0 0.0
23/06:00pm 5.2 -1.7 0.2 70 1.9 W 26 35 14 19 998.1 998.1 0.0
23/05:30pm 5.7 -0.9 -0.1 66 2.2 W 24 33 13 18 997.3 997.3 0.0
23/05:00pm 6.6 -0.7 0.1 63 2.5 WSW 28 37 15 20 996.5 996.5 0.0
23/04:30pm 7.7 -0.4 -0.3 57 3.1 W 32 46 17 25 995.5 995.5 0.0
23/04:00pm 7.2 -1.0 -0.7 57 3.1 WNW 32 50 17 27 995.1 995.1 0.0
23/03:36pm 7.9 -1.8 -2.1 49 3.7 W 39 57 21 31 994.6 994.6 0.0
23/03:30pm 8.3 -2.2 -2.3 47 4.0 W 43 57 23 31 994.4 994.4 0.0
23/03:03pm 8.8 0.3 -1.9 47 4.1 WNW 33 52 18 28 993.9 993.9 0.0
23/03:00pm 9.1 0.9 -1.0 49 4.0 WNW 32 46 17 25 993.9 993.9 0.0
23/02:30pm 8.9 -1.2 -2.4 45 4.2 W 41 59 22 32 993.6 993.6 0.0
23/02:02pm 9.1 -0.3 -2.8 43 4.4 W 37 57 20 31 993.3 993.3 0.0
23/02:00pm 9.2 -0.1 -2.1 45 4.3 W 37 52 20 28 993.2 993.2 0.0
23/01:31pm 8.6 -0.7 -2.3 46 4.1 W 37 56 20 30 993.3 993.3 0.0
23/01:30pm 8.8 -0.8 -1.6 48 4.0 W 39 56 21 30 993.2 993.2 0.0
23/01:17pm 8.9 0.5 -1.2 49 3.9 W 33 52 18 28 993.1 993.1 0.0
23/01:00pm 8.8 -0.8 -1.3 49 3.9 W 39 52 21 28 992.7 992.7 0.0
23/12:36pm 8.7 -0.9 -1.4 49 3.9 W 39 61 21 33 992.1 992.1 0.0
23/12:30pm 8.6 -1.6 -0.4 53 3.5 W 43 57 23 31 992.1 992.1 0.0
23/12:13pm 8.5 -1.4 -1.0 51 3.7 W 41 59 22 32 991.8 991.8 0.0
23/12:00pm 8.4 -1.6 -1.4 50 3.8 W 41 57 22 31 991.5 991.5 0.0
23/11:33am 8.2 -1.4 -1.6 50 3.7 W 39 61 21 33 990.9 990.9 0.0
23/11:30am 8.3 -1.3 -1.2 51 3.6 W 39 54 21 29 991.0 991.0 0.0
23/11:00am 8.0 -1.2 -1.0 53 3.5 W 37 56 20 30 990.4 990.4 0.0
23/10:39am 8.1 -0.7 -0.9 53 3.5 W 35 57 19 31 990.1 990.1 0.0
23/10:30am 8.1 -0.7 -1.1 52 3.5 W 35 52 19 28 990.0 990.0 0.0
23/10:08am 7.8 -2.1 -0.9 54 3.3 W 41 59 22 32 989.6 989.6 0.0
23/10:00am 7.7 -1.0 -0.3 57 3.2 W 35 48 19 26 989.5 989.5 0.0
23/09:45am 7.6 -1.7 0.3 60 2.9 W 39 57 21 31 989.1 989.1 0.0
23/09:30am 7.4 -2.8 -0.1 59 2.9 W 43 56 23 30 988.7 988.7 0.0
23/09:14am 7.4 -1.2 0.2 60 2.8 W 35 54 19 29 988.4 988.4 0.0
23/09:00am 7.5 -0.4 1.1 64 2.6 W 32 46 17 25 988.6 988.6 3.4
23/08:30am 7.1 -0.4 1.0 65 2.4 WNW 30 54 16 29 988.0 988.0 3.4
23/08:29am 7.0 -0.1 1.1 66 2.4 W 28 54 15 29 988.0 988.0 3.4
23/08:00am 7.0 -0.4 1.7 69 2.2 W 30 44 16 24 987.7 987.7 3.4
23/07:58am 7.0 -0.4 1.9 70 2.1 W 30 48 16 26 987.7 987.7 3.4
23/07:30am 7.0 0.1 2.7 74 1.8 W 28 43 15 23 986.8 986.8 3.4
23/07:00am 7.3 1.3 3.2 75 1.8 WNW 24 35 13 19 986.4 986.4 3.4
23/06:30am 7.4 0.6 2.9 73 1.9 WNW 28 41 15 22 986.0 986.0 3.4
23/06:00am 7.4 0.5 2.7 72 2.0 W 28 52 15 28 985.6 985.6 3.4
23/05:56am 7.4 0.5 2.5 71 2.0 W 28 52 15 28 985.6 985.6 3.4
23/05:30am 7.5 1.0 2.8 72 2.0 W 26 41 14 22 985.4 985.4 3.4
23/05:00am 7.3 1.6 2.6 72 2.0 W 22 30 12 16 985.2 985.2 3.4
23/04:30am 7.7 2.0 3.0 72 2.0 W 22 32 12 17 984.9 984.9 3.4
23/04:00am 7.9 1.9 3.2 72 2.0 WNW 24 37 13 20 984.9 984.9 3.4
23/03:30am 7.6 2.5 2.9 72 2.0 WNW 19 28 10 15 985.2 985.2 3.4
23/03:00am 7.6 2.6 3.5 75 1.8 NW 19 20 10 11 985.5 985.5 3.4
23/02:30am 7.2 3.3 3.3 76 1.6 NW 13 17 7 9 986.2 986.2 3.4
23/02:00am 7.1 4.3 3.3 77 1.6 S 7 13 4 7 986.7 986.7 3.4
23/01:30am 7.2 4.4 3.3 76 1.6 WNW 7 15 4 8 986.6 986.6 3.4
23/01:00am 7.3 4.5 3.2 75 1.8 NW 7 11 4 6 986.9 986.9 3.4
23/12:30am 7.5 5.3 3.6 76 1.7 SW 4 11 2 6 987.1 987.1 3.4
23/12:00am 8.1 2.6 3.9 75 1.8 WNW 22 32 12 17 986.8 986.8 3.4
 
Date/Time
EST
Temp
°C
App
Temp
°C
Dew
Point
°C
Rel
Hum
%
Delta-T
°C
Wind Press
QNH
hPa
Press
MSL
hPa
Rain since
9am
mm
Dir  Spd
km/h
Gust
km/h
Spd
kts
Gust
kts
22/11:30pm 8.2 2.0 4.2 76 1.7 WNW 26 35 14 19 987.2 987.2 3.4
22/11:00pm 8.3 2.4 4.1 75 1.9 WNW 24 33 13 18 987.6 987.6 3.4
22/10:30pm 8.5 2.3 4.3 75 1.8 WNW 26 33 14 18 987.7 987.7 3.4
22/10:00pm 8.9 1.3 4.1 72 2.1 WNW 33 43 18 23 987.6 987.6 3.4
22/09:30pm 9.3 1.9 4.1 70 2.3 WNW 32 43 17 23 987.7 987.7 3.4
22/09:00pm 9.7 1.4 4.3 69 2.4 WNW 37 54 20 29 987.5 987.5 3.4
22/08:30pm 9.9 1.3 4.5 69 2.4 WNW 39 57 21 31 987.7 987.7 3.4
22/08:20pm 9.8 0.8 4.4 69 2.4 WNW 41 59 22 32 987.5 987.5 3.4
22/08:00pm 10.0 0.6 4.2 67 2.6 WNW 43 57 23 31 987.6 987.6 3.4
22/07:32pm 10.1 1.5 4.9 70 2.3 WNW 39 57 21 31 987.3 987.3 3.4
22/07:30pm 9.9 1.7 4.7 70 2.3 WNW 37 52 20 28 987.4 987.4 3.4
22/07:00pm 10.4 1.4 4.5 67 2.7 WNW 41 63 22 34 987.1 987.1 3.4
22/06:43pm 10.4 2.8 5.8 73 2.1 WNW 35 54 19 29 987.2 987.2 3.4
22/06:30pm 10.6 2.2 5.6 71 2.3 WNW 39 54 21 29 986.8 986.8 3.4
22/06:12pm 10.8 1.9 5.3 69 2.5 WNW 41 59 22 32 986.5 986.5 3.4
22/06:00pm 10.9 1.7 5.4 69 2.6 WNW 43 57 23 31 986.5 986.5 3.4
22/05:30pm 11.3 3.4 6.2 71 2.4 WNW 37 57 20 31 986.2 986.2 3.4
22/05:00pm 11.6 2.9 7.5 76 2.0 WNW 43 65 23 35 985.5 985.5 3.4
22/04:30pm 12.0 3.4 8.1 77 1.9 WNW 43 63 23 34 985.1 985.1 3.4
22/04:00pm 12.2 2.7 8.5 78 1.9 WNW 48 70 26 38 985.1 985.1 3.4
22/03:30pm 12.0 4.5 9.4 84 1.3 NW 39 59 21 32 984.8 984.8 3.4
22/03:19pm 11.8 4.7 9.5 86 1.2 NW 37 57 20 31 985.0 985.0 3.4
22/03:00pm 10.7 4.4 9.0 89 0.9 NW 32 39 17 21 985.2 985.2 3.4
22/02:30pm 9.9 3.4 8.3 90 0.8 WNW 32 44 17 24 985.7 985.7 3.4
22/02:13pm 10.0 -1.3 7.9 87 1.0 W 57 104 31 56 986.5 986.5 2.4
22/02:12pm 10.2 -1.1 8.1 87 1.0 WNW 57 104 31 56 986.5 986.5 2.2
22/02:05pm 11.8 0.1 7.9 77 1.9 NW 59 100 32 54 986.2 986.2 0.6
22/02:00pm 13.9 2.6 10.7 81 1.7 NNW 61 82 33 44 984.9 984.9 0.6
22/01:30pm 14.3 5.0 10.7 79 1.9 NNW 50 69 27 37 985.1 985.1 0.6
22/01:16pm 14.5 6.5 10.5 77 2.1 NNW 43 61 23 33 985.4 985.4 0.6
22/01:00pm 14.3 5.9 10.9 80 1.8 NW 46 59 25 32 985.9 985.9 0.6
22/12:30pm 13.7 5.1 10.3 80 1.8 NW 46 65 25 35 987.1 987.1 0.2
22/12:00pm 14.9 6.7 10.3 74 2.4 NW 44 63 24 34 987.6 987.6 0.2
22/11:30am 14.6 7.5 10.8 78 2.0 NW 39 57 21 31 988.4 988.4 0.2
22/11:00am 14.4 6.4 11.2 81 1.7 WNW 44 69 24 37 989.3 989.3 0.2
22/10:30am 13.9 6.0 11.6 86 1.2 NW 44 74 24 40 989.2 989.2 0.2
22/10:00am 14.1 4.3 11.6 85 1.4 NW 54 80 29 43 989.4 989.4 0.2
22/09:52am 14.1 4.7 11.4 84 1.4 NW 52 80 28 43 989.5 989.5 0.2
22/09:30am 13.6 6.0 11.7 88 1.0 NNW 43 61 23 33 990.0 990.0 0.0
22/09:25am 13.4 5.7 11.5 88 1.0 NNW 43 61 23 33 990.1 990.1 0.0
22/09:00am 13.1 5.1 11.2 88 1.0 NNW 44 59 24 32 990.5 990.5 6.2
22/08:30am 12.7 4.0 11.3 91 0.7 NNW 48 67 26 36 990.8 990.8 6.2
22/08:00am 12.8 3.4 11.4 91 0.7 NNW 52 72 28 39 991.2 991.2 6.0
22/07:39am 12.9 2.7 11.5 91 0.7 NNW 56 74 30 40 991.4 991.4 5.6
22/07:30am 13.0 1.9 11.4 90 0.8 NNW 61 78 33 42 991.4 991.4 5.2
22/07:00am 12.8 2.5 11.0 89 1.0 NNW 56 74 30 40 991.9 991.9 4.4
22/06:32am 12.9 1.6 10.8 87 1.1 NNW 61 80 33 43 992.3 992.3 3.8
22/06:30am 13.0 1.7 10.9 87 1.1 NNW 61 80 33 43 992.4 992.4 3.8
22/06:26am 13.0 1.7 10.9 87 1.1 NNW 61 80 33 43 992.6 992.6 3.6
22/06:00am 13.1 4.1 10.3 83 1.5 NNW 48 69 26 37 993.8 993.8 3.0
22/05:52am 13.0 6.2 10.5 85 1.3 NNW 37 59 20 32 993.8 993.8 3.0
22/05:30am 12.3 7.2 10.5 89 0.9 N 28 39 15 21 994.2 994.2 2.8
22/05:00am 12.3 5.1 10.4 88 1.0 NNW 39 56 21 30 995.8 995.8 1.8
22/04:30am 13.3 3.8 9.9 80 1.7 NNW 50 61 27 33 995.0 995.0 0.2
22/04:00am 13.2 4.2 10.2 82 1.6 NNW 48 57 26 31 995.5 995.5 0.2
22/03:30am 13.0 4.9 10.2 83 1.4 NNW 43 54 23 29 996.6 996.6 0.2
22/03:00am 12.9 6.8 10.3 84 1.4 NNW 33 43 18 23 997.8 997.8 0.2
22/02:58am 12.9 6.8 10.3 84 1.3 N 33 43 18 23 997.8 997.8 0.2
22/02:30am 12.8 5.5 10.3 85 1.3 NNW 39 48 21 26 999.8 999.8 0.2
22/02:00am 12.9 5.3 10.6 86 1.2 N 41 50 22 27 1000.6 1000.6 0.2
22/01:30am 13.0 6.2 10.7 86 1.2 N 37 46 20 25 1001.1 1001.1 0.2
22/01:00am 13.1 6.3 10.6 85 1.3 N 37 48 20 26 1002.4 1002.4 0.2
22/12:30am 13.0 5.8 10.7 86 1.2 NNW 39 46 21 25 1003.5 1003.5 0.2
22/12:00am 12.9 6.8 10.6 86 1.2 N 33 39 18 21 1004.1 1004.1 0.2
 
Date/Time
EST
Temp
°C
App
Temp
°C
Dew
Point
°C
Rel
Hum
%
Delta-T
°C
Wind Press
QNH
hPa
Press
MSL
hPa
Rain since
9am
mm
Dir  Spd
km/h
Gust
km/h
Spd
kts
Gust
kts
21/11:30pm 12.6 6.7 10.3 86 1.2 N 32 39 17 21 1004.8 1004.8 0.2
21/11:00pm 12.7 8.4 10.6 87 1.1 NNW 24 33 13 18 1005.9 1005.9 0.2
21/10:30pm 12.5 8.2 10.6 88 1.0 NNW 24 32 13 17 1006.3 1006.3 0.2
21/10:00pm 12.6 8.2 10.5 87 1.1 NNW 24 33 13 18 1006.4 1006.4 0.2
21/09:30pm 12.7 7.6 10.6 87 1.1 NNW 28 35 15 19 1007.0 1007.0 0.2
21/09:00pm 12.5 8.2 10.6 88 1.0 NNW 24 33 13 18 1007.3 1007.3 0.2
21/08:30pm 12.3 8.0 10.7 90 0.8 NNW 24 30 13 16 1007.7 1007.7 0.2
21/08:00pm 12.5 7.1 10.9 90 0.8 NNW 30 35 16 19 1007.8 1007.8 0.2
21/07:30pm 12.4 7.3 10.6 89 0.9 NNW 28 35 15 19 1008.2 1008.2 0.2
21/07:00pm 12.4 6.5 10.6 89 0.9 NNW 32 35 17 19 1008.4 1008.4 0.2
21/06:30pm 12.2 6.6 10.3 88 1.0 N 30 37 16 20 1008.4 1008.4 0.2
21/06:00pm 11.6 6.6 9.7 88 1.0 N 26 32 14 17 1009.0 1009.0 0.2
21/05:30pm 11.1 7.3 9.2 88 0.9 NNW 19 24 10 13 1009.6 1009.6 0.2
21/05:00pm 11.4 7.3 8.8 84 1.3 NNW 20 24 11 13 1010.1 1010.1 0.0
21/04:30pm 11.7 8.0 8.0 78 1.8 NNW 17 22 9 12 1010.3 1010.3 0.0
21/04:00pm 11.8 8.5 7.9 77 1.9 NNW 15 20 8 11 1010.5 1010.5 0.0
21/03:30pm 11.9 7.7 7.4 74 2.2 NW 19 24 10 13 1011.2 1011.2 0.0
21/03:00pm 12.1 7.8 7.2 72 2.4 NW 19 26 10 14 1011.6 1011.6 0.0
21/02:30pm 12.4 7.2 7.3 71 2.5 NW 24 32 13 17 1011.9 1011.9 0.0
21/02:00pm 12.6 7.6 6.6 67 2.9 NNW 22 32 12 17 1012.4 1012.4 0.0
21/01:30pm 12.7 6.8 7.4 70 2.6 NNW 28 33 15 18 1013.0 1013.0 0.0
21/01:00pm 13.6 8.1 7.4 66 3.0 NNW 26 33 14 18 1013.1 1013.1 0.0
21/12:30pm 13.5 8.9 8.1 70 2.7 NNW 22 32 12 17 1013.9 1013.9 0.0
21/12:00pm 12.0 7.3 7.7 75 2.1 NNW 22 30 12 16 1014.7 1014.7 0.0
21/11:30am 12.2 8.1 7.7 74 2.2 NNW 19 26 10 14 1015.4 1015.4 0.0
21/11:00am 12.6 8.6 8.3 75 2.1 NNW 19 24 10 13 1015.9 1015.9 0.0

Other Formats:

Comma delimited format used in spreadsheet applications
http://www.bom.gov.au/fwo/IDT60801/IDT60801.94983.axf

JavaScript Object Notation format (JSON) in row-major order
http://www.bom.gov.au/fwo/IDT60801/IDT60801.94983.json